Time;durP1;ratioP1;P1;durP2;ratioP2;P2;SDS_P1;SDS_P2;PMS_P1;PMS_P2;Temp;Humidity;BMP_temperature;BMP_pressure;BME280_temperature;BME280_humidity;BME280_pressure;Samples;Min_cycle;Max_cycle;Signal;HPM_P1;HPM_P2
2020/12/01 00:00:08;;;;;;;;;;;15.90;99.90;;;15.34;88.40;101064.63;5092580;28;19955;-64
2020/12/01 00:02:35;;;;;;;;;;;15.80;99.90;;;15.32;88.50;101070.38;5092939;28;19981;-64
2020/12/01 00:05:03;;;;;;;;;;;15.80;99.90;;;15.29;88.78;101070.19;5092680;28;20381;-64
2020/12/01 00:07:30;;;;;;;;;;;15.80;99.90;;;15.26;89.04;101076.28;5092986;28;19974;-65
2020/12/01 00:09:58;;;;;;;;;;;15.70;99.90;;;15.19;88.99;101073.22;5092697;28;20327;-64
2020/12/01 00:12:25;;;;;;;;;;;15.70;99.90;;;15.15;89.60;101074.97;5092640;28;19959;-64
2020/12/01 00:14:52;;;;;;;;;;;15.60;99.90;;;15.09;89.63;101063.41;5092507;28;19951;-64
2020/12/01 00:17:19;;;;;;;;;;;15.60;99.90;;;15.06;89.76;101074.13;5092913;28;20365;-65
2020/12/01 00:19:46;;;;;;;;;;;15.50;99.90;;;15.01;89.70;101072.34;5092859;28;19954;-65
2020/12/01 00:22:14;;;;;;;;;;;15.50;99.90;;;14.99;89.82;101073.75;5092218;28;19924;-64
2020/12/01 00:24:41;;;;;;;;;;;15.50;99.90;;;14.99;90.07;101071.03;5091811;28;19974;-64
2020/12/01 00:27:09;;;;;;;;;;;15.40;99.90;;;14.93;90.01;101067.63;5092654;28;20577;-64
2020/12/01 00:29:36;;;;;;;;;;;15.40;99.90;;;14.93;90.44;101066.84;5092675;28;19977;-65
2020/12/01 00:32:04;;;;;;;;;;;15.40;99.90;;;14.93;90.10;101067.63;5091789;28;20012;-64
2020/12/01 00:34:33;;;;;;;;;;;15.40;99.90;;;14.94;89.93;101063.00;5091495;28;20215;-66
2020/12/01 00:37:03;;;;;;;;;;;15.40;99.90;;;14.93;89.78;101062.19;5092725;28;19960;-66
2020/12/01 00:39:31;;;;;;;;;;;15.40;99.90;;;14.97;89.21;101065.09;5092514;28;19924;-63
2020/12/01 00:41:58;;;;;;;;;;;15.40;99.90;;;15.00;89.12;101067.19;5091826;28;19993;-64
2020/12/01 00:44:26;;;;;;;;;;;15.40;99.90;;;14.97;89.12;101082.25;5092168;28;19927;-64
2020/12/01 00:46:53;;;;;;;;;;;15.50;99.90;;;14.96;88.89;101083.34;5092695;28;20394;-65
2020/12/01 00:49:20;;;;;;;;;;;15.40;99.90;;;14.95;89.09;101080.97;5092531;28;19924;-64
2020/12/01 00:51:49;;;;;;;;;;;15.40;99.90;;;14.95;88.92;101065.44;5091656;28;19924;-65
2020/12/01 00:54:16;;;;;;;;;;;15.40;99.90;;;14.87;89.70;101068.06;5091897;28;19931;-65
2020/12/01 00:56:44;;;;;;;;;;;15.40;99.90;;;14.85;89.69;101067.59;5092356;28;19924;-66
2020/12/01 00:59:11;;;;;;;;;;;15.30;99.90;;;14.76;90.11;101071.09;5092509;28;19924;-65
2020/12/01 01:01:38;;;;;;;;;;;15.30;99.90;;;14.74;90.23;101075.25;5091698;28;20441;-65
2020/12/01 01:04:05;;;;;;;;;;;15.20;99.90;;;14.67;90.40;101067.50;5092020;28;20368;-65
2020/12/01 01:06:32;;;;;;;;;;;15.20;99.90;;;14.60;90.83;101061.69;5092113;28;19971;-65
2020/12/01 01:09:00;;;;;;;;;;;15.10;99.90;;;14.55;91.35;101064.53;5092363;28;19928;-66
2020/12/01 01:11:29;;;;;;;;;;;15.10;99.90;;;14.53;91.38;101066.75;5091556;28;20009;-65
2020/12/01 01:13:57;;;;;;;;;;;15.00;99.90;;;14.50;91.65;101061.16;5091916;28;19977;-65
2020/12/01 01:16:25;;;;;;;;;;;15.00;99.90;;;14.48;91.69;101057.91;5091962;28;20291;-65
2020/12/01 01:18:52;;;;;;;;;;;15.00;99.90;;;14.48;91.89;101053.28;5092155;28;20015;-66
2020/12/01 01:21:23;;;;;;;;;;;15.00;99.90;;;14.52;91.48;101054.28;5091517;28;19959;-65
2020/12/01 01:23:51;;;;;;;;;;;15.00;99.90;;;14.55;91.16;101055.56;5091827;28;19935;-66
2020/12/01 01:26:18;;;;;;;;;;;15.00;99.90;;;14.56;91.05;101066.13;5092023;28;20030;-65
2020/12/01 01:28:45;;;;;;;;;;;15.00;99.90;;;14.52;91.17;101062.44;5092067;28;19997;-65
2020/12/01 01:31:18;;;;;;;;;;;15.00;99.90;;;14.47;91.40;101056.34;5091453;28;20016;-66
2020/12/01 01:33:45;;;;;;;;;;;15.00;99.90;;;14.41;91.77;101066.50;5091723;28;19966;-65
2020/12/01 01:36:12;;;;;;;;;;;14.90;99.90;;;14.36;91.88;101066.66;5093227;28;20351;-66
2020/12/01 01:38:39;;;;;;;;;;;14.90;99.90;;;14.34;91.73;101073.50;5095831;28;19966;-66
2020/12/01 01:41:06;;;;;;;;;;;14.80;99.90;;;14.32;91.74;101079.22;5094868;28;19928;-65
2020/12/01 01:43:33;;;;;;;;;;;14.80;99.90;;;14.26;92.48;101076.94;5095391;28;19963;-65
2020/12/01 01:46:01;;;;;;;;;;;14.80;99.90;;;14.17;92.73;101088.53;5095392;28;19928;-66
2020/12/01 01:48:32;;;;;;;;;;;14.70;99.90;;;14.12;92.97;101090.56;5095853;28;20396;-65
2020/12/01 01:51:04;;;;;;;;;;;14.60;99.90;;;14.05;93.74;101099.16;5094859;28;19924;-65
2020/12/01 01:53:32;;;;;;;;;;;14.50;99.90;;;14.01;94.47;101094.63;5095278;28;19978;-66
2020/12/01 01:56:02;;;;;;;;;;;14.50;99.90;;;13.98;94.70;101100.69;5094994;28;19928;-65
2020/12/01 01:58:34;;;;;;;;;;;14.50;99.90;;;13.96;94.64;101094.72;5095480;28;19977;-65
2020/12/01 02:01:04;;;;;;;;;;;14.50;99.90;;;13.95;95.00;101096.63;5094621;28;19936;-65
2020/12/01 02:03:36;;;;;;;;;;;14.50;99.90;;;13.99;95.27;101099.56;5094957;28;20357;-66
2020/12/01 02:06:05;;;;;;;;;;;14.50;99.90;;;14.01;95.06;101105.50;5095047;28;20297;-65
2020/12/01 02:08:33;;;;;;;;;;;14.50;99.90;;;14.03;95.03;101098.66;5094842;28;19928;-66
2020/12/01 02:11:01;;;;;;;;;;;14.50;99.90;;;14.00;95.15;101102.00;5094361;28;19971;-66
2020/12/01 02:13:39;;;;;;;;;;;14.50;99.90;;;14.05;95.65;101107.31;5094842;28;19924;-65
2020/12/01 02:16:06;;;;;;;;;;;14.50;99.90;;;14.09;95.19;101115.66;5094870;28;20118;-65
2020/12/01 02:18:37;;;;;;;;;;;14.60;99.90;;;14.07;95.70;101115.94;5095153;28;20373;-66
2020/12/01 02:21:26;;;;;;;;;;;14.60;99.90;;;14.11;95.44;101127.84;5094344;28;19928;-65
2020/12/01 02:23:53;;;;;;;;;;;14.60;99.90;;;14.10;94.97;101128.94;5094678;28;20365;-65
2020/12/01 02:26:21;;;;;;;;;;;14.60;99.90;;;14.13;95.04;101127.53;5094730;28;19972;-65
2020/12/01 02:28:48;;;;;;;;;;;14.60;99.90;;;14.12;95.07;101123.22;5094878;28;20364;-66
2020/12/01 02:31:15;;;;;;;;;;;14.60;99.90;;;14.12;95.05;101125.94;5094080;28;19950;-66
2020/12/01 02:33:42;;;;;;;;;;;14.60;99.90;;;14.11;95.37;101125.13;5094291;28;20914;-65
2020/12/01 02:36:15;;;;;;;;;;;14.60;99.90;;;14.09;95.45;101116.47;5094549;28;20339;-66
2020/12/01 02:38:43;;;;;;;;;;;14.60;99.90;;;14.08;95.72;101119.47;5094677;28;20011;-65
2020/12/01 02:41:10;;;;;;;;;;;14.60;99.90;;;14.03;95.81;101117.69;5093918;28;19974;-65
2020/12/01 02:43:38;;;;;;;;;;;14.50;99.90;;;14.04;95.76;101113.06;5094167;28;19924;-65
2020/12/01 02:46:05;;;;;;;;;;;14.50;99.90;;;14.02;95.79;101113.34;5094350;28;20016;-65
2020/12/01 02:48:32;;;;;;;;;;;14.50;99.90;;;14.02;95.56;101109.81;5094206;28;20430;-65
2020/12/01 02:51:00;;;;;;;;;;;14.50;99.90;;;14.00;95.38;101107.44;5093762;28;19993;-65
2020/12/01 02:53:27;;;;;;;;;;;14.50;99.90;;;13.99;95.12;101111.25;5094057;28;19928;-66
2020/12/01 02:55:54;;;;;;;;;;;14.50;99.90;;;13.99;95.21;101107.72;5094056;28;19932;-66
2020/12/01 02:58:21;;;;;;;;;;;14.50;99.90;;;13.98;94.92;101109.63;5094385;28;19932;-65
2020/12/01 03:00:49;;;;;;;;;;;14.50;99.90;;;13.94;95.28;101111.38;5093628;28;19985;-65
2020/12/01 03:03:16;;;;;;;;;;;14.40;99.90;;;13.92;95.20;101110.84;5082988;28;19977;-65
2020/12/01 03:05:43;;;;;;;;;;;;;;;13.92;95.04;101105.41;5073402;28;20017;-66
2020/12/01 03:08:10;;;;;;;;;;;14.40;99.90;;;13.88;95.04;101103.63;5073807;28;19971;-65
2020/12/01 03:10:38;;;;;;;;;;;14.40;99.90;;;13.82;95.08;101110.28;5073371;28;19924;-64
2020/12/01 03:13:05;;;;;;;;;;;14.30;99.90;;;13.83;95.29;101111.88;5073645;28;19925;-65
2020/12/01 03:15:32;;;;;;;;;;;14.30;99.90;;;13.82;95.17;101108.38;5073154;28;19978;-64
2020/12/01 03:18:00;;;;;;;;;;;14.30;99.90;;;13.83;95.37;101107.22;5073601;28;19990;-64
2020/12/01 03:20:27;;;;;;;;;;;14.30;99.90;;;13.81;94.96;101090.44;5072995;28;19964;-65
2020/12/01 03:22:54;;;;;;;;;;;14.30;99.90;;;13.80;94.78;101091.53;5073546;28;19979;-64
2020/12/01 03:25:21;;;;;;;;;;;14.20;99.90;;;13.81;94.78;101090.44;5073170;28;19932;-64
2020/12/01 03:27:48;;;;;;;;;;;14.30;99.90;;;13.77;94.64;101081.28;5073110;28;20396;-65
2020/12/01 03:30:15;;;;;;;;;;;14.20;99.90;;;13.79;94.57;101081.78;5072648;28;20005;-64
2020/12/01 03:32:42;;;;;;;;;;;14.20;99.90;;;13.76;94.38;101079.69;5072972;28;20404;-64
2020/12/01 03:35:11;;;;;;;;;;;14.20;99.90;;;13.74;94.53;101076.44;5072951;28;19929;-64
2020/12/01 03:37:38;;;;;;;;;;;14.20;99.90;;;13.73;94.77;101069.41;5073254;28;19925;-64
2020/12/01 03:40:05;;;;;;;;;;;14.10;99.90;;;13.74;95.08;101070.22;5072606;28;19928;-64
2020/12/01 03:42:32;;;;;;;;;;;14.20;99.90;;;13.73;94.63;101053.13;5072892;28;19966;-64
2020/12/01 03:45:00;;;;;;;;;;;14.20;99.90;;;13.71;95.07;101065.41;5072764;28;20348;-64
2020/12/01 03:47:27;;;;;;;;;;;14.10;99.90;;;13.67;94.77;101060.56;5073042;28;20358;-63
2020/12/01 03:49:54;;;;;;;;;;;14.10;99.90;;;13.64;95.33;101063.91;5072797;28;19960;-64
2020/12/01 03:52:22;;;;;;;;;;;14.10;99.90;;;13.69;95.00;101069.22;5072583;28;20385;-64
2020/12/01 03:54:49;;;;;;;;;;;14.10;99.90;;;13.74;95.09;101054.69;5072562;28;19970;-64
2020/12/01 03:57:16;;;;;;;;;;;14.20;99.90;;;13.72;94.79;101056.94;5072464;28;20448;-64
2020/12/01 03:59:43;;;;;;;;;;;14.20;99.90;;;13.73;94.87;101053.13;5071824;28;19932;-65
2020/12/01 04:02:10;;;;;;;;;;;14.20;99.90;;;13.72;95.50;101056.13;5072201;28;19967;-63
2020/12/01 04:04:37;;;;;;;;;;;14.20;99.90;;;13.71;95.47;101060.75;5072433;28;19978;-63
2020/12/01 04:07:05;;;;;;;;;;;14.20;99.90;;;13.68;95.56;101045.06;5072870;28;19929;-64
2020/12/01 04:09:33;;;;;;;;;;;14.10;99.90;;;13.71;95.66;101047.16;5072723;28;19958;-64
2020/12/01 04:12:00;;;;;;;;;;;14.20;99.90;;;13.71;95.90;101058.03;5071841;28;19978;-63
2020/12/01 04:14:27;;;;;;;;;;;14.20;99.90;;;13.76;95.42;101054.41;5072169;28;19978;-64
2020/12/01 04:16:54;;;;;;;;;;;14.20;99.90;;;13.80;94.86;101058.13;5072638;28;19924;-64
2020/12/01 04:19:21;;;;;;;;;;;14.20;99.90;;;13.80;94.99;101055.41;5072641;28;19989;-64
2020/12/01 04:21:49;;;;;;;;;;;14.20;99.90;;;13.81;95.10;101055.09;5071710;28;19972;-63
2020/12/01 04:24:16;;;;;;;;;;;14.30;99.90;;;13.86;94.89;101070.50;5072253;28;20365;-63
2020/12/01 04:26:44;;;;;;;;;;;14.30;99.90;;;13.85;94.92;101060.72;5072411;28;19928;-65
2020/12/01 04:29:11;;;;;;;;;;;14.30;99.90;;;13.82;95.06;101062.16;5072541;28;19978;-63
2020/12/01 04:31:38;;;;;;;;;;;14.30;99.90;;;13.90;94.53;101063.31;5071380;28;19925;-63
2020/12/01 04:34:05;;;;;;;;;;;14.30;99.90;;;14.00;93.71;101053.03;5072184;28;20462;-64
2020/12/01 04:36:32;;;;;;;;;;;14.40;99.90;;;14.02;93.04;101048.09;5072368;28;19932;-64
2020/12/01 04:38:59;;;;;;;;;;;14.40;99.90;;;13.98;93.65;101057.19;5072320;28;19970;-64
2020/12/01 04:41:27;;;;;;;;;;;14.50;99.90;;;13.98;93.10;101049.03;5070936;28;19974;-66
2020/12/01 04:43:57;;;;;;;;;;;14.40;99.90;;;13.92;93.35;101045.59;5071935;28;19978;-65
2020/12/01 04:46:27;;;;;;;;;;;14.30;99.90;;;13.88;93.73;101054.69;5072578;28;19928;-66
2020/12/01 04:48:58;;;;;;;;;;;14.40;99.90;;;13.89;93.55;101051.66;5071837;28;19928;-66
2020/12/01 04:51:51;;;;;;;;;;;14.30;99.90;;;13.91;93.52;101048.63;5071630;28;20309;-66
2020/12/01 04:54:54;;;;;;;;;;;14.40;99.90;;;13.97;93.55;101050.94;5069119;28;19971;-65
2020/12/01 04:57:43;;;;;;;;;;;14.40;99.90;;;14.03;93.53;101052.44;5062242;28;19936;-66
2020/12/01 05:00:35;;;;;;;;;;;14.50;99.90;;;14.10;92.81;101046.56;5071621;28;19960;-66
2020/12/01 05:03:16;;;;;;;;;;;14.50;99.90;;;14.16;92.36;101051.56;5068422;28;19982;-65
2020/12/01 05:06:02;;;;;;;;;;;14.60;99.90;;;14.22;91.59;101060.44;5071718;28;19978;-65
2020/12/01 05:08:39;;;;;;;;;;;14.70;99.90;;;14.24;91.27;101050.84;5072212;28;19963;-65
2020/12/01 05:11:15;;;;;;;;;;;14.70;99.90;;;14.27;91.13;101059.50;5074343;28;20289;-67
2020/12/01 05:13:42;;;;;;;;;;;14.70;99.90;;;14.35;90.51;101056.88;5075773;28;19929;-63
2020/12/01 05:16:22;;;;;;;;;;;14.80;99.90;;;14.46;89.17;101050.09;5075781;28;19937;-64
2020/12/01 05:18:49;;;;;;;;;;;14.90;99.90;;;14.59;88.49;101056.56;5075911;28;19924;-64
2020/12/01 05:21:18;;;;;;;;;;;15.00;99.90;;;14.62;88.21;101061.41;5075216;28;19925;-64
2020/12/01 05:23:47;;;;;;;;;;;15.00;99.90;;;14.69;87.48;101054.38;5075289;28;20377;-64
2020/12/01 05:26:16;;;;;;;;;;;15.10;99.90;;;14.71;87.54;101071.19;5075794;28;19924;-64
2020/12/01 05:28:45;;;;;;;;;;;15.10;99.90;;;14.69;87.44;101067.19;5075337;28;20023;-64
2020/12/01 05:31:13;;;;;;;;;;;15.20;99.90;;;14.74;86.98;101059.69;5074721;28;19928;-63
2020/12/01 05:33:41;;;;;;;;;;;15.20;99.90;;;14.80;86.72;101057.66;5075258;28;19964;-64
2020/12/01 05:36:17;;;;;;;;;;;15.20;99.90;;;14.84;86.41;101074.16;5075493;28;19925;-64
2020/12/01 05:38:45;;;;;;;;;;;15.20;99.90;;;14.87;85.78;101073.53;5075524;28;19928;-63
2020/12/01 05:41:21;;;;;;;;;;;15.30;99.90;;;14.83;85.74;101076.09;5074287;28;19978;-63
2020/12/01 05:43:54;;;;;;;;;;;15.30;99.90;;;14.83;85.57;101070.66;5093238;28;19932;-66
2020/12/01 05:46:27;;;;;;;;;;;15.30;99.90;;;14.84;85.85;101077.69;5095679;28;19977;-64
2020/12/01 05:49:03;;;;;;;;;;;15.30;99.90;;;14.89;85.38;101069.41;5095716;28;19950;-64
2020/12/01 05:51:38;;;;;;;;;;;15.30;99.90;;;14.95;84.81;101073.59;5094690;28;19928;-63
2020/12/01 05:54:06;;;;;;;;;;;15.30;99.90;;;14.98;84.16;101070.25;5095280;28;19950;-63
2020/12/01 05:56:33;;;;;;;;;;;15.40;99.90;;;14.99;84.04;101079.19;5095504;28;19924;-64
2020/12/01 05:59:03;;;;;;;;;;;15.40;99.90;;;14.99;83.97;101079.19;5095364;28;19924;-64
2020/12/01 06:01:41;;;;;;;;;;;15.40;99.90;;;14.96;83.89;101083.34;5094448;28;19924;-64
2020/12/01 06:04:12;;;;;;;;;;;15.40;99.90;;;14.98;83.61;101075.69;5094838;28;19978;-64
2020/12/01 06:06:58;;;;;;;;;;;15.40;99.90;;;14.93;83.61;101075.00;5095508;28;20422;-65
2020/12/01 06:09:56;;;;;;;;;;;15.40;99.90;;;14.85;84.06;101090.19;5095263;28;19928;-63
2020/12/01 06:12:38;;;;;;;;;;;15.30;99.90;;;14.85;83.88;101073.03;5082798;28;20380;-64
2020/12/01 06:15:06;;;;;;;;;;;15.30;99.90;;;14.85;83.45;101076.56;5094555;28;19927;-64
2020/12/01 06:17:40;;;;;;;;;;;15.30;99.90;;;14.83;83.64;101081.53;5095042;28;19974;-64
2020/12/01 06:20:17;;;;;;;;;;;15.30;99.90;;;14.79;83.38;101088.72;5094336;28;20292;-66
2020/12/01 06:23:17;;;;;;;;;;;15.20;99.90;;;14.74;83.56;101086.13;5094140;28;19982;-64
2020/12/01 06:26:19;;;;;;;;;;;15.20;99.90;;;14.70;83.62;101083.22;5091965;28;20407;-63
2020/12/01 06:29:12;;;;;;;;;;;15.20;99.90;;;14.63;84.18;101088.28;5092010;28;19956;-64
2020/12/01 06:32:21;;;;;;;;;;;15.10;99.90;;;14.53;84.85;101093.97;5093708;28;20385;-64
2020/12/01 06:35:20;;;;;;;;;;;15.00;99.90;;;14.51;84.68;101100.84;5094571;28;19978;-65
2020/12/01 06:38:06;;;;;;;;;;;14.90;99.90;;;14.45;85.03;101102.06;5041378;28;20337;-64
2020/12/01 06:40:39;;;;;;;;;;;14.90;99.90;;;14.38;85.30;101104.44;5093821;28;19967;-64
2020/12/01 06:43:13;;;;;;;;;;;14.90;99.90;;;14.28;85.95;101104.63;5094478;28;19924;-63
2020/12/01 06:45:43;;;;;;;;;;;14.80;99.90;;;14.18;86.35;101106.47;5094086;28;20610;-64
2020/12/01 06:48:13;;;;;;;;;;;14.70;99.90;;;14.17;86.88;101104.03;5094625;28;19985;-64
2020/12/01 06:50:46;;;;;;;;;;;14.60;99.90;;;14.11;86.90;101108.81;5093778;28;19928;-65
2020/12/01 06:53:13;;;;;;;;;;;14.60;99.90;;;14.12;86.63;101104.16;5094363;28;19949;-65
2020/12/01 06:55:58;;;;;;;;;;;14.60;99.90;;;14.05;87.23;101106.50;5092789;28;19978;-65
2020/12/01 06:58:37;;;;;;;;;;;14.60;99.90;;;14.07;87.49;101110.50;5094284;28;19927;-65
2020/12/01 07:01:24;;;;;;;;;;;14.50;99.90;;;14.05;87.23;101114.66;5093357;28;19997;-65
2020/12/01 07:04:20;;;;;;;;;;;14.50;99.90;;;14.02;86.95;101105.19;5093888;28;20169;-65
2020/12/01 07:06:50;;;;;;;;;;;14.50;99.90;;;14.07;87.09;101112.44;5094143;28;20377;-65
2020/12/01 07:09:20;;;;;;;;;;;14.50;99.90;;;14.11;86.43;101114.25;5094150;28;19924;-65
2020/12/01 07:11:57;;;;;;;;;;;14.50;99.90;;;14.04;86.90;101107.63;5093111;28;19928;-65
2020/12/01 07:14:36;;;;;;;;;;;14.50;99.90;;;13.94;87.29;101122.25;5093441;28;19928;-65
2020/12/01 07:17:16;;;;;;;;;;;14.40;99.90;;;13.86;88.13;101128.38;5093882;28;19928;-65
2020/12/01 07:19:44;;;;;;;;;;;14.40;99.90;;;13.85;88.23;101145.00;5093645;28;19924;-66
2020/12/01 07:22:27;;;;;;;;;;;14.30;99.90;;;13.72;88.90;101148.53;5093076;28;19924;-64
2020/12/01 07:24:55;;;;;;;;;;;14.30;99.90;;;13.67;89.23;101146.72;5093360;28;20196;-63
2020/12/01 07:27:27;;;;;;;;;;;14.20;99.90;;;13.61;89.50;101143.31;5093886;28;19928;-63
2020/12/01 07:30:00;;;;;;;;;;;14.10;99.90;;;13.70;88.88;101135.25;5093185;28;19963;-64
2020/12/01 07:32:29;;;;;;;;;;;14.20;99.90;;;13.70;88.62;101127.09;5093263;28;20012;-65
2020/12/01 07:35:08;;;;;;;;;;;14.20;99.90;;;13.72;88.61;101130.31;5093050;28;19990;-65
2020/12/01 07:37:59;;;;;;;;;;;14.20;99.90;;;13.69;88.79;101139.06;5093544;28;19985;-65
2020/12/01 07:40:29;;;;;;;;;;;14.20;99.90;;;13.59;89.37;101158.28;5083666;28;19928;-65
2020/12/01 07:43:04;;;;;;;;;;;14.10;99.90;;;13.54;89.88;101158.38;5093216;28;19924;-65
2020/12/01 07:45:32;;;;;;;;;;;14.00;99.90;;;13.49;90.37;101147.63;5092946;28;19977;-65
2020/12/01 07:48:01;;;;;;;;;;;14.00;99.90;;;13.44;90.44;101150.41;5093308;28;19936;-65
2020/12/01 07:50:29;;;;;;;;;;;13.90;99.90;;;13.42;90.56;101147.22;5092646;28;19978;-66
2020/12/01 07:53:01;;;;;;;;;;;13.90;99.90;;;13.41;90.38;101142.88;5093190;28;19963;-65
2020/12/01 07:55:36;;;;;;;;;;;13.80;99.90;;;13.69;89.81;101144.50;5092888;28;20380;-65
2020/12/01 07:58:05;;;;;;;;;;;14.20;99.90;;;14.56;85.95;101141.56;5093276;28;19936;-66
2020/12/01 08:00:34;;;;;;;;;;;14.40;99.90;;;15.19;81.88;101133.16;5092609;28;19924;-66
2020/12/01 08:03:03;;;;;;;;;;;14.60;99.90;;;14.92;81.78;101134.13;5092942;28;19936;-65
2020/12/01 08:05:30;;;;;;;;;;;14.80;99.90;;;14.42;84.27;101143.50;5092624;28;19924;-63
2020/12/01 08:07:58;;;;;;;;;;;14.70;99.90;;;14.12;85.89;101147.69;5093121;28;19946;-64
2020/12/01 08:10:26;;;;;;;;;;;14.50;99.90;;;13.98;87.10;101153.13;5092458;28;20408;-66
2020/12/01 08:12:59;;;;;;;;;;;14.40;99.90;;;13.95;87.57;101148.28;5092750;28;19924;-66
2020/12/01 08:15:27;;;;;;;;;;;14.30;99.90;;;13.98;87.89;101155.06;5092384;28;20369;-64
2020/12/01 08:17:55;;;;;;;;;;;14.30;99.90;;;14.01;87.55;101151.75;5092637;28;19928;-64
2020/12/01 08:20:25;;;;;;;;;;;14.30;99.90;;;14.05;87.71;101145.38;5092170;28;20400;-65
2020/12/01 08:22:58;;;;;;;;;;;14.40;99.90;;;14.16;86.98;101146.75;5092100;28;20315;-64
2020/12/01 08:25:28;;;;;;;;;;;14.40;99.90;;;14.25;86.81;101146.84;5092419;28;19932;-64
2020/12/01 08:28:02;;;;;;;;;;;14.50;99.90;;;14.36;86.26;101144.72;5092651;28;20290;-63
2020/12/01 08:30:37;;;;;;;;;;;14.70;99.90;;;14.55;85.44;101134.50;5092141;28;19985;-64
2020/12/01 08:33:10;;;;;;;;;;;14.80;99.90;;;14.65;84.30;101139.69;5092210;28;20373;-64
2020/12/01 08:35:41;;;;;;;;;;;15.00;99.90;;;14.75;83.40;101137.53;5092211;28;19977;-64
2020/12/01 08:38:16;;;;;;;;;;;15.10;99.90;;;14.88;82.97;101149.47;5092643;28;19978;-63
2020/12/01 08:40:47;;;;;;;;;;;15.20;99.90;;;15.02;82.15;101152.91;5091930;28;19924;-64
2020/12/01 08:43:24;;;;;;;;;;;15.40;99.90;;;15.13;81.96;101157.00;5092407;28;19967;-64
2020/12/01 08:46:04;;;;;;;;;;;15.50;99.90;;;15.26;80.71;101155.28;5091786;28;19924;-63
2020/12/01 08:48:38;;;;;;;;;;;15.60;99.90;;;15.37;80.82;101161.28;5092469;28;19963;-63
2020/12/01 08:51:26;;;;;;;;;;;15.70;99.90;;;15.46;81.45;101175.75;5091644;28;20323;-64
2020/12/01 08:54:04;;;;;;;;;;;15.80;99.90;;;15.57;81.14;101171.66;5091886;28;20010;-64
2020/12/01 08:56:42;;;;;;;;;;;15.90;99.90;;;15.76;80.87;101169.50;5092272;28;19924;-64
2020/12/01 08:59:12;;;;;;;;;;;16.10;99.90;;;15.79;79.29;101163.41;5092427;28;20365;-64
2020/12/01 09:01:41;;;;;;;;;;;16.10;99.90;;;15.82;79.89;101168.22;5091532;28;19924;-64
2020/12/01 09:04:21;;;;;;;;;;;16.20;99.90;;;15.74;80.52;101175.28;5091720;28;19956;-64
2020/12/01 09:06:50;;;;;;;;;;;16.20;99.90;;;15.65;80.80;101170.91;5092303;28;20416;-64
2020/12/01 09:09:22;;;;;;;;;;;16.10;99.90;;;15.53;81.26;101174.22;5092261;28;19978;-64
2020/12/01 09:14:51;;;;;;;;;;;16.00;99.90;;;15.75;81.98;101189.69;5086195;28;20355;-64
2020/12/01 09:17:26;;;;;;;;;;;16.10;99.90;;;15.96;80.88;101187.22;5092181;28;19924;-64
2020/12/01 09:22:48;;;;;;;;;;;16.50;99.90;;;16.50;76.89;101194.06;5089258;28;19925;-65
2020/12/01 09:25:19;;;;;;;;;;;16.80;99.90;;;16.66;75.84;101189.72;5091841;28;19924;-64
2020/12/01 09:27:47;;;;;;;;;;;17.00;99.90;;;16.85;75.67;101187.47;5092099;28;19931;-63
2020/12/01 09:30:26;;;;;;;;;;;17.10;99.90;;;17.08;73.78;101186.19;5091467;28;19928;-67
2020/12/01 09:32:54;;;;;;;;;;;17.30;99.90;;;17.31;74.83;101187.56;5091789;28;20454;-65
2020/12/01 09:35:23;;;;;;;;;;;17.50;99.90;;;17.20;72.81;101190.97;5091664;28;19932;-66
2020/12/01 09:37:50;;;;;;;;;;;17.60;99.90;;;17.02;73.57;101197.59;5091875;28;20458;-65
2020/12/01 09:40:18;;;;;;;;;;;17.50;99.90;;;16.99;74.34;101190.88;5091346;28;19924;-65
2020/12/01 09:42:48;;;;;;;;;;;17.50;99.90;;;17.18;75.16;101194.03;5091880;28;19924;-65
2020/12/01 09:45:21;;;;;;;;;;;17.60;99.90;;;17.29;73.97;101194.50;5091445;28;20366;-66
2020/12/01 09:47:51;;;;;;;;;;;17.70;99.90;;;17.33;74.60;101198.16;5092080;28;20019;-65
2020/12/01 09:50:23;;;;;;;;;;;17.70;99.90;;;17.33;74.54;101196.25;5091305;28;20133;-66
2020/12/01 09:53:06;;;;;;;;;;;17.80;99.90;;;17.38;75.42;101195.28;5092008;28;19974;-65
2020/12/01 09:55:50;;;;;;;;;;;17.80;99.90;;;17.40;74.26;101206.69;5091587;28;19963;-63
2020/12/01 09:58:33;;;;;;;;;;;17.80;99.90;;;17.47;75.99;101213.28;5094793;28;19931;-66
2020/12/01 10:09:27;;;;;;;;;;;18.10;99.90;;;17.52;73.38;101234.16;5086969;28;20305;-63
2020/12/01 10:25:57;;;;;;;;;;;18.20;99.90;;;17.80;73.55;101226.38;5073812;28;19928;-64
2020/12/01 10:36:37;;;;;;;;;;;18.30;99.90;;;18.24;76.70;101244.97;5074514;28;19925;-64
2020/12/01 10:39:06;;;;;;;;;;;18.50;99.90;;;18.28;72.47;101243.19;5074485;28;20009;-65
2020/12/01 10:41:34;;;;;;;;;;;18.50;99.90;;;18.42;74.19;101249.22;5073743;28;19946;-64
2020/12/01 10:44:02;;;;;;;;;;;18.60;99.90;;;18.53;74.69;101246.94;5074091;28;20357;-63
2020/12/01 10:46:29;;;;;;;;;;;18.80;99.90;;;18.54;74.56;101246.59;5074429;28;19925;-63
2020/12/01 10:48:56;;;;;;;;;;;18.90;99.90;;;18.58;73.73;101241.25;5074468;28;19958;-64
2020/12/01 10:51:24;;;;;;;;;;;18.90;99.90;;;18.54;72.82;101241.09;5073315;28;19974;-64
2020/12/01 10:53:51;;;;;;;;;;;18.90;99.90;;;18.52;73.32;101235.16;5073956;28;19981;-64
2020/12/01 10:56:19;;;;;;;;;;;18.90;99.90;;;18.45;72.23;101237.59;5073681;28;19932;-64
2020/12/01 10:58:46;;;;;;;;;;;18.80;99.90;;;18.44;74.11;101227.78;5074270;28;19994;-64
2020/12/01 11:01:14;;;;;;;;;;;18.80;99.90;;;18.36;72.33;101234.09;5073154;28;19934;-64
2020/12/01 11:03:41;;;;;;;;;;;18.80;99.90;;;18.33;72.49;101234.78;5073319;28;20381;-64
2020/12/01 11:06:09;;;;;;;;;;;18.80;99.90;;;18.44;73.29;101235.19;5073703;28;19929;-63
2020/12/01 11:08:36;;;;;;;;;;;18.90;99.90;;;18.62;74.05;101227.69;5073559;28;19964;-65
2020/12/01 11:11:03;;;;;;;;;;;19.00;99.90;;;18.74;72.72;101220.34;5073060;28;19928;-66
2020/12/01 11:13:31;;;;;;;;;;;19.10;99.90;;;18.76;72.56;101214.53;5073503;28;20413;-64
2020/12/01 11:15:58;;;;;;;;;;;19.20;99.90;;;18.71;72.91;101206.50;5073346;28;19925;-63
2020/12/01 11:18:25;;;;;;;;;;;19.10;99.90;;;18.68;71.91;101208.00;5073601;28;19924;-64
2020/12/01 11:20:52;;;;;;;;;;;19.10;99.90;;;18.83;72.09;101217.53;5073038;28;19994;-64
2020/12/01 11:23:19;;;;;;;;;;;19.20;99.90;;;18.91;71.92;101211.97;5073215;28;19970;-66
2020/12/01 11:25:46;;;;;;;;;;;19.30;99.90;;;19.05;69.10;101217.97;5073016;28;20708;-66
2020/12/01 11:28:14;;;;;;;;;;;19.50;99.90;;;19.21;69.58;101215.38;5073686;28;19929;-66
2020/12/01 11:30:42;;;;;;;;;;;19.60;99.90;;;19.34;67.95;101206.06;5072751;28;19982;-66
2020/12/01 11:33:09;;;;;;;;;;;19.60;99.90;;;19.33;65.96;101195.44;5073166;28;19960;-66
2020/12/01 11:35:36;;;;;;;;;;;19.70;99.90;;;19.30;67.90;101194.16;5072780;28;20340;-66
2020/12/01 11:38:03;;;;;;;;;;;19.70;99.90;;;19.30;67.88;101191.41;5073302;28;19963;-65
2020/12/01 11:40:30;;;;;;;;;;;19.70;99.90;;;19.01;67.73;101188.84;5077245;28;19925;-65
2020/12/01 11:42:57;;;;;;;;;;;19.50;99.90;;;18.91;68.88;101183.75;5093593;28;19967;-65
2020/12/01 11:45:25;;;;;;;;;;;19.40;99.90;;;18.79;69.00;101180.97;5093550;28;20380;-66
2020/12/01 11:47:54;;;;;;;;;;;19.30;99.90;;;18.77;69.32;101175.03;5093409;28;20164;-66
2020/12/01 11:50:21;;;;;;;;;;;19.20;99.90;;;18.92;70.51;101168.94;5092825;28;19989;-65
2020/12/01 11:52:52;;;;;;;;;;;19.30;99.90;;;19.12;67.47;101159.06;5093354;28;19967;-66
2020/12/01 11:55:19;;;;;;;;;;;19.50;99.90;;;19.23;68.07;101161.03;5088776;28;20001;-66
2020/12/01 11:57:46;;;;;;;;;;;19.60;99.90;;;19.36;65.39;101150.91;5072863;28;20446;-66
2020/12/01 12:00:17;;;;;;;;;;;19.70;99.90;;;19.33;65.88;101152.34;5072558;28;20332;-65
2020/12/01 12:02:44;;;;;;;;;;;19.70;99.90;;;19.38;66.68;101146.66;5073066;28;20400;-65